Time;durP1;ratioP1;P1;durP2;ratioP2;P2;SDS_P1;SDS_P2;PMS_P1;PMS_P2;Temp;Humidity;BMP_temperature;BMP_pressure;BME280_temperature;BME280_humidity;BME280_pressure;Samples;Min_cycle;Max_cycle;Signal;HPM_P1;HPM_P2
2023/08/23 00:01:28;;;;;;;6.30;5.33;;;22.10;99.90;;;;;;5079113;28;20717;-79
2023/08/23 00:03:56;;;;;;;6.57;5.43;;;22.10;99.90;;;;;;5073141;28;20207;-78
2023/08/23 00:06:25;;;;;;;8.50;5.30;;;22.10;99.90;;;;;;5072970;28;20288;-78
2023/08/23 00:08:53;;;;;;;6.80;5.13;;;22.10;99.90;;;;;;5074392;28;20207;-77
2023/08/23 00:11:21;;;;;;;8.93;5.77;;;22.10;99.90;;;;;;5073668;28;20273;-78
2023/08/23 00:13:49;;;;;;;6.17;5.53;;;22.10;99.90;;;;;;5073005;28;20215;-79
2023/08/23 00:16:18;;;;;;;6.43;5.73;;;22.00;99.90;;;;;;5072231;28;20211;-79
2023/08/23 00:18:47;;;;;;;9.20;5.50;;;22.00;99.90;;;;;;5084510;28;20294;-78
2023/08/23 00:21:15;;;;;;;8.10;5.53;;;22.00;99.90;;;;;;5092528;28;20669;-79
2023/08/23 00:23:43;;;;;;;6.93;5.50;;;22.00;99.90;;;;;;5092397;28;20746;-79
2023/08/23 00:26:12;;;;;;;8.23;5.53;;;22.00;99.90;;;;;;5092062;28;20721;-78
2023/08/23 00:28:40;;;;;;;8.60;5.47;;;21.90;99.90;;;;;;5072431;28;20211;-78
2023/08/23 00:31:08;;;;;;;6.77;5.50;;;21.90;99.90;;;;;;5072078;28;20223;-79
2023/08/23 00:33:38;;;;;;;7.00;5.40;;;21.90;99.90;;;;;;5072046;28;20211;-79
2023/08/23 00:36:06;;;;;;;9.67;5.90;;;21.90;99.90;;;;;;5085839;28;20244;-78
2023/08/23 00:38:34;;;;;;;7.60;5.67;;;21.90;99.90;;;;;;5092589;28;20211;-77
2023/08/23 00:41:02;;;;;;;6.80;5.40;;;21.90;99.90;;;;;;5092353;28;20211;-78
2023/08/23 00:43:31;;;;;;;6.23;5.37;;;21.90;99.90;;;;;;5090466;28;20658;-78
2023/08/23 00:45:59;;;;;;;6.73;6.03;;;21.90;99.90;;;;;;5071444;28;20263;-79
2023/08/23 00:48:27;;;;;;;8.33;5.73;;;22.00;99.90;;;;;;5071783;28;20249;-79
2023/08/23 00:50:57;;;;;;;7.90;5.80;;;22.00;99.90;;;;;;5072066;28;20215;-77
2023/08/23 00:53:25;;;;;;;6.83;6.13;;;22.00;99.90;;;;;;5085857;28;20245;-78
2023/08/23 00:55:53;;;;;;;7.47;6.17;;;22.10;99.90;;;;;;5091790;28;20207;-79
2023/08/23 00:58:22;;;;;;;8.40;5.97;;;22.10;99.90;;;;;;5092329;28;20265;-76
2023/08/23 01:00:51;;;;;;;7.47;5.53;;;22.10;99.90;;;;;;5088059;28;20227;-78
2023/08/23 01:03:19;;;;;;;8.10;5.87;;;22.20;99.90;;;;;;5072055;28;20269;-79
2023/08/23 01:05:57;;;;;;;9.60;6.30;;;22.20;99.90;;;;;;5071792;28;20247;-78
2023/08/23 01:08:35;;;;;;;9.90;7.00;;;22.20;99.90;;;;;;5071982;28;20610;-78
2023/08/23 01:11:11;;;;;;;11.93;5.80;;;22.20;99.90;;;;;;5071699;28;20203;-78
2023/08/23 01:13:46;;;;;;;8.90;6.30;;;22.20;99.90;;;;;;5071704;28;20195;-77
2023/08/23 01:16:17;;;;;;;6.57;5.87;;;22.20;99.90;;;;;;5071311;28;20238;-78
2023/08/23 01:18:46;;;;;;;11.07;5.90;;;22.20;99.90;;;;;;5071854;28;20192;-77
2023/08/23 01:21:19;;;;;;;8.23;6.23;;;22.20;99.90;;;;;;5071531;28;20620;-80
2023/08/23 01:23:49;;;;;;;8.93;5.93;;;22.20;99.90;;;;;;5071985;28;20199;-79
2023/08/23 01:26:17;;;;;;;17.03;8.70;;;22.20;99.90;;;;;;5071468;28;20227;-77
2023/08/23 01:28:47;;;;;;;17.23;9.17;;;22.10;99.90;;;;;;5071658;28;20211;-79
2023/08/23 01:31:17;;;;;;;14.67;9.07;;;21.90;99.90;;;;;;5074826;28;20227;-79
2023/08/23 01:33:50;;;;;;;15.10;10.03;;;21.70;99.90;;;;;;5095491;28;20242;-74
2023/08/23 01:36:24;;;;;;;12.77;9.00;;;21.60;99.90;;;;;;5095463;28;20666;-75
2023/08/23 01:38:55;;;;;;;13.93;8.63;;;21.20;99.90;;;;;;5087661;28;20245;-75
2023/08/23 01:41:24;;;;;;;14.83;8.77;;;21.20;99.90;;;;;;5075741;28;20207;-75
2023/08/23 01:43:53;;;;;;;13.90;8.90;;;21.10;99.90;;;;;;5075458;28;20212;-75
2023/08/23 01:46:21;;;;;;;13.20;8.90;;;21.00;99.90;;;;;;5075379;28;20267;-78
2023/08/23 01:48:50;;;;;;;14.20;9.33;;;21.00;99.90;;;;;;5075108;28;20207;-79
2023/08/23 01:51:18;;;;;;;18.13;9.87;;;20.90;99.90;;;;;;5083717;28;20230;-78
2023/08/23 01:53:46;;;;;;;19.63;11.80;;;20.90;99.90;;;;;;5095584;28;20230;-77
2023/08/23 01:56:15;;;;;;;15.07;9.90;;;20.90;99.90;;;;;;5081812;28;20239;-77
2023/08/23 01:58:45;;;;;;;16.27;11.52;;;20.80;99.90;;;;;;5073860;28;20843;-76
2023/08/23 02:01:14;;;;;;;13.33;10.23;;;20.70;99.90;;;;;;5075198;28;20239;-76
2023/08/23 02:03:42;;;;;;;16.23;11.07;;;20.70;99.90;;;;;;5093712;28;20343;-73
2023/08/23 02:06:10;;;;;;;17.77;12.20;;;20.70;99.90;;;;;;5076907;28;20238;-75
2023/08/23 02:08:39;;;;;;;17.03;11.27;;;20.70;99.90;;;;;;5074837;28;20212;-76
2023/08/23 02:11:07;;;;;;;15.27;11.00;;;20.70;99.90;;;;;;5074951;28;20677;-76
2023/08/23 02:13:37;;;;;;;16.03;11.87;;;20.70;99.90;;;;;;5074886;28;20211;-77
2023/08/23 02:16:05;;;;;;;19.47;11.90;;;20.70;99.90;;;;;;5074801;28;20207;-76
2023/08/23 02:18:33;;;;;;;15.60;11.40;;;20.70;99.90;;;;;;5074873;28;20215;-73
2023/08/23 02:21:01;;;;;;;16.03;11.57;;;20.70;99.90;;;;;;5075287;28;20207;-74
2023/08/23 02:23:30;;;;;;;15.77;12.00;;;20.70;99.90;;;;;;5074798;28;20246;-78
2023/08/23 02:25:58;;;;;;;17.20;10.97;;;20.70;99.90;;;;;;5074662;28;20254;-78
2023/08/23 02:28:26;;;;;;;14.67;11.60;;;20.60;99.90;;;;;;5074980;28;20267;-76
2023/08/23 02:31:02;;;;;;;13.03;11.40;;;20.60;99.90;;;;;;5075062;28;20204;-74
2023/08/23 02:33:31;;;;;;;13.10;10.70;;;20.50;99.90;;;;;;5091078;28;20210;-77
2023/08/23 02:35:59;;;;;;;14.30;10.90;;;20.50;99.90;;;;;;5094593;28;20198;-77
2023/08/23 02:38:27;;;;;;;12.53;10.73;;;20.50;99.90;;;;;;5094937;28;20267;-78
2023/08/23 02:40:55;;;;;;;16.37;11.53;;;20.40;99.90;;;;;;5094425;28;20657;-76
2023/08/23 02:43:24;;;;;;;15.83;11.13;;;20.40;99.90;;;;;;5081994;28;20611;-75
2023/08/23 02:45:52;;;;;;;17.20;12.50;;;20.40;99.90;;;;;;5077683;28;20211;-75
2023/08/23 02:48:21;;;;;;;14.73;11.77;;;20.40;99.90;;;;;;5074022;28;20665;-74
2023/08/23 02:50:50;;;;;;;15.33;12.33;;;20.30;99.90;;;;;;5087985;28;20214;-74
2023/08/23 02:53:18;;;;;;;15.60;12.27;;;20.30;99.90;;;;;;5073928;28;20211;-77
2023/08/23 02:55:46;;;;;;;13.33;11.73;;;20.30;99.90;;;;;;5079173;28;20203;-75
2023/08/23 02:58:14;;;;;;;19.40;13.20;;;20.30;99.90;;;;;;5094094;28;20194;-75
2023/08/23 03:00:42;;;;;;;16.53;13.03;;;20.30;99.90;;;;;;5086513;28;20227;-75
2023/08/23 03:03:10;;;;;;;17.90;12.73;;;20.30;99.90;;;;;;5073813;28;20211;-76
2023/08/23 03:05:40;;;;;;;16.67;14.23;;;20.30;99.90;;;;;;5073370;28;20297;-76
2023/08/23 03:08:08;;;;;;;17.10;14.10;;;20.40;99.90;;;;;;5077883;28;20230;-80
2023/08/23 03:10:36;;;;;;;17.03;13.20;;;20.30;99.90;;;;;;5093749;28;20609;-76
2023/08/23 03:13:04;;;;;;;24.47;15.27;;;20.40;99.90;;;;;;5093703;28;20215;-77
2023/08/23 03:15:32;;;;;;;21.03;15.10;;;20.40;99.90;;;;;;5093278;28;20206;-77
2023/08/23 03:18:00;;;;;;;21.80;14.10;;;20.30;99.90;;;;;;5073612;28;20219;-76
2023/08/23 03:20:29;;;;;;;19.67;14.83;;;20.20;99.90;;;;;;5073315;28;20257;-77
2023/08/23 03:22:58;;;;;;;22.43;15.20;;;20.30;99.90;;;;;;5073381;28;20662;-75
2023/08/23 03:25:26;;;;;;;22.67;15.40;;;20.20;99.90;;;;;;5072389;28;20203;-76
2023/08/23 03:27:54;;;;;;;19.43;13.43;;;20.30;99.90;;;;;;5072894;28;20759;-77
2023/08/23 03:30:22;;;;;;;14.97;12.77;;;20.20;99.90;;;;;;5072969;28;20211;-77
2023/08/23 03:32:50;;;;;;;16.93;12.50;;;20.10;99.90;;;;;;5072433;28;20272;-78
2023/08/23 03:35:19;;;;;;;17.63;14.60;;;20.10;99.90;;;;;;5072408;28;20211;-76
2023/08/23 03:37:47;;;;;;;18.03;13.40;;;20.10;99.90;;;;;;5073016;28;20247;-80
2023/08/23 03:40:17;;;;;;;14.53;12.27;;;20.10;99.90;;;;;;5073067;28;20233;-78
2023/08/23 03:42:45;;;;;;;17.07;11.93;;;20.10;99.90;;;;;;5073275;28;20231;-77
2023/08/23 03:45:13;;;;;;;14.20;11.27;;;20.10;99.90;;;;;;5072741;28;20621;-78
2023/08/23 03:47:41;;;;;;;13.90;11.87;;;20.10;99.90;;;;;;5074544;28;20259;-77
2023/08/23 03:50:10;;;;;;;19.50;13.10;;;20.10;99.90;;;;;;5093027;28;20657;-79
2023/08/23 03:52:38;;;;;;;16.20;12.80;;;20.10;99.90;;;;;;5085205;28;20257;-79
2023/08/23 03:55:06;;;;;;;15.53;11.00;;;20.00;99.90;;;;;;5072653;28;20203;-78
2023/08/23 03:57:36;;;;;;;16.97;11.73;;;20.00;99.90;;;;;;5072335;28;20250;-78
2023/08/23 04:00:04;;;;;;;14.37;11.47;;;19.90;99.90;;;;;;5072588;28;20223;-77
2023/08/23 04:02:32;;;;;;;15.67;10.93;;;19.90;99.90;;;;;;5073326;28;20211;-76
2023/08/23 04:05:04;;;;;;;15.73;11.00;;;19.90;99.90;;;;;;5083271;28;20547;-78
2023/08/23 04:07:32;;;;;;;14.10;11.03;;;19.90;99.90;;;;;;5092836;28;20211;-79
2023/08/23 04:10:00;;;;;;;16.47;12.27;;;19.80;99.90;;;;;;5089443;28;20208;-78
2023/08/23 04:12:28;;;;;;;14.80;12.10;;;19.80;99.90;;;;;;5072404;28;20261;-75
2023/08/23 04:14:58;;;;;;;15.60;11.60;;;19.70;99.90;;;;;;5073818;28;20211;-75
2023/08/23 04:17:26;;;;;;;12.57;11.27;;;19.70;99.90;;;;;;5092104;28;20199;-76
2023/08/23 04:19:54;;;;;;;13.07;11.67;;;19.70;99.90;;;;;;5086775;28;20596;-74
2023/08/23 04:22:22;;;;;;;14.77;11.83;;;19.70;99.90;;;;;;5074592;28;20216;-75
2023/08/23 04:24:51;;;;;;;12.90;11.17;;;19.70;99.90;;;;;;5072018;28;20234;-76
2023/08/23 04:27:18;;;;;;;15.60;12.30;;;19.70;99.90;;;;;;5071987;28;20705;-77
2023/08/23 04:29:46;;;;;;;16.47;12.13;;;19.70;99.90;;;;;;5086174;28;20207;-77
2023/08/23 04:32:15;;;;;;;15.13;11.07;;;19.70;99.90;;;;;;5092532;28;20214;-78
2023/08/23 04:34:43;;;;;;;14.70;12.33;;;19.70;99.90;;;;;;5092137;28;20264;-78
2023/08/23 04:37:11;;;;;;;15.83;12.13;;;19.80;99.90;;;;;;5090645;28;20217;-78
2023/08/23 04:39:39;;;;;;;13.40;12.10;;;19.70;99.90;;;;;;5091246;28;20246;-77
2023/08/23 04:42:08;;;;;;;13.23;11.83;;;19.80;99.90;;;;;;5093449;28;20207;-76
2023/08/23 04:44:36;;;;;;;12.33;9.47;;;19.80;99.90;;;;;;5092102;28;20218;-76
2023/08/23 04:47:04;;;;;;;12.60;11.30;;;20.00;99.90;;;;;;5090800;28;20223;-76
2023/08/23 04:49:34;;;;;;;17.43;11.50;;;20.00;99.90;;;;;;5092254;28;20257;-76
2023/08/23 04:52:02;;;;;;;13.70;11.77;;;20.00;99.90;;;;;;5092038;28;20660;-76
2023/08/23 04:54:30;;;;;;;13.27;11.83;;;19.90;99.90;;;;;;5092194;28;20287;-78
2023/08/23 04:56:58;;;;;;;13.77;11.67;;;19.90;99.90;;;;;;5075483;28;20268;-78
2023/08/23 04:59:26;;;;;;;13.20;11.60;;;19.90;99.90;;;;;;5071947;28;20231;-77
2023/08/23 05:01:54;;;;;;;13.47;12.00;;;19.90;99.90;;;;;;5072063;28;20697;-79
2023/08/23 05:04:23;;;;;;;15.10;12.73;;;19.90;99.90;;;;;;5070659;28;20210;-75
2023/08/23 05:06:52;;;;;;;16.47;13.23;;;19.90;99.90;;;;;;5085577;28;20210;-76
2023/08/23 05:09:20;;;;;;;15.93;14.10;;;19.90;99.90;;;;;;5091658;28;20688;-78
2023/08/23 05:11:49;;;;;;;16.67;13.40;;;19.90;99.90;;;;;;5089717;28;20206;-77
2023/08/23 05:14:20;;;;;;;15.90;12.93;;;19.90;99.90;;;;;;5088385;28;20585;-79
2023/08/23 05:16:48;;;;;;;17.60;13.00;;;19.90;99.90;;;;;;5091479;28;20259;-73
2023/08/23 05:19:16;;;;;;;16.90;13.70;;;19.90;99.90;;;;;;5091575;28;20248;-77
2023/08/23 05:21:44;;;;;;;14.00;12.53;;;19.90;99.90;;;;;;5090077;28;20719;-75
2023/08/23 05:24:14;;;;;;;15.03;13.50;;;19.90;99.90;;;;;;5091514;28;20225;-77
2023/08/23 05:26:42;;;;;;;13.97;12.50;;;19.90;99.90;;;;;;5091646;28;20207;-75
2023/08/23 05:29:10;;;;;;;16.37;13.37;;;19.90;99.90;;;;;;5092112;28;20226;-77
2023/08/23 05:31:38;;;;;;;14.40;12.83;;;19.90;99.90;;;;;;5077375;28;20276;-76
2023/08/23 05:34:06;;;;;;;17.97;13.67;;;19.90;99.90;;;;;;5071493;28;20295;-77
2023/08/23 05:36:34;;;;;;;14.57;13.07;;;20.00;99.90;;;;;;5071228;28;20211;-77
2023/08/23 05:39:04;;;;;;;15.33;13.73;;;20.00;99.90;;;;;;5071361;28;20210;-75
2023/08/23 05:41:33;;;;;;;18.93;14.57;;;20.00;99.90;;;;;;5071467;28;20298;-74
2023/08/23 05:44:01;;;;;;;14.93;13.43;;;20.00;99.90;;;;;;5071672;28;20261;-77
2023/08/23 05:46:30;;;;;;;15.70;13.83;;;20.00;99.90;;;;;;5086529;28;20610;-75
2023/08/23 05:48:58;;;;;;;16.30;14.17;;;20.00;99.90;;;;;;5091778;28;20309;-72
2023/08/23 05:51:26;;;;;;;15.53;13.53;;;20.00;99.90;;;;;;5090291;28;20293;-76
2023/08/23 05:53:54;;;;;;;19.77;14.80;;;20.00;99.90;;;;;;5089248;28;20248;-75
2023/08/23 05:56:24;;;;;;;17.03;14.17;;;20.00;99.90;;;;;;5091126;28;20203;-72
2023/08/23 05:58:53;;;;;;;15.03;13.50;;;20.00;99.90;;;;;;5091152;28;20211;-76
2023/08/23 06:01:23;;;;;;;16.13;14.43;;;20.00;99.90;;;;;;5091308;28;20260;-75
2023/08/23 06:03:51;;;;;;;16.13;14.03;;;20.00;99.90;;;;;;5074224;28;20216;-77
2023/08/23 06:06:19;;;;;;;17.57;13.97;;;20.10;99.90;;;;;;5072103;28;20231;-77
2023/08/23 06:08:47;;;;;;;12.80;11.40;;;20.10;99.90;;;;;;5071311;28;20223;-78
2023/08/23 06:11:15;;;;;;;15.90;11.60;;;20.10;99.90;;;;;;5071572;28;20216;-78
2023/08/23 06:13:43;;;;;;;13.70;11.20;;;20.20;99.90;;;;;;5071824;28;20273;-77
2023/08/23 06:16:13;;;;;;;11.93;10.37;;;20.20;99.90;;;;;;5072515;28;20211;-77
2023/08/23 06:18:41;;;;;;;11.53;10.13;;;20.40;99.90;;;;;;5075193;28;20209;-77
2023/08/23 06:21:09;;;;;;;11.63;10.00;;;20.60;99.90;;;;;;5074728;28;20261;-77
2023/08/23 06:23:43;;;;;;;11.63;10.43;;;20.80;99.90;;;;;;5074942;28;20216;-78
2023/08/23 06:26:11;;;;;;;12.80;10.67;;;21.00;99.90;;;;;;5074537;28;20215;-77
2023/08/23 06:28:40;;;;;;;11.40;8.77;;;21.30;99.90;;;;;;5085056;28;20650;-80
2023/08/23 06:31:08;;;;;;;9.50;8.20;;;21.50;99.90;;;;;;5095087;28;20375;-79
2023/08/23 06:33:37;;;;;;;10.77;8.30;;;21.70;99.90;;;;;;5094652;28;20206;-78
2023/08/23 06:36:09;;;;;;;11.30;7.80;;;22.10;99.90;;;;;;5094764;28;20207;-77
2023/08/23 06:38:37;;;;;;;9.73;7.40;;;22.40;99.90;;;;;;5095053;28;20649;-78
2023/08/23 06:41:05;;;;;;;8.80;7.57;;;22.60;99.90;;;;;;5094971;28;20210;-77
2023/08/23 06:43:33;;;;;;;8.63;7.30;;;22.70;99.90;;;;;;5094781;28;20265;-79
2023/08/23 06:46:01;;;;;;;10.40;7.90;;;22.70;99.90;;;;;;5082648;28;20211;-78
2023/08/23 06:48:30;;;;;;;10.97;6.97;;;22.70;99.90;;;;;;5074121;28;20237;-76
2023/08/23 06:51:03;;;;;;;9.13;7.40;;;22.60;99.90;;;;;;5074224;28;20246;-76
2023/08/23 06:53:33;;;;;;;7.70;6.90;;;22.50;99.90;;;;;;5074204;28;20199;-76
2023/08/23 06:56:04;;;;;;;9.03;6.90;;;22.50;99.90;;;;;;5073955;28;20265;-78
2023/08/23 06:58:32;;;;;;;9.13;6.70;;;22.50;99.90;;;;;;5073891;28;20207;-79
2023/08/23 07:01:01;;;;;;;8.67;6.50;;;22.60;99.90;;;;;;5074661;28;20277;-78
2023/08/23 07:03:29;;;;;;;9.97;7.43;;;22.80;99.90;;;;;;5094294;28;20234;-77
2023/08/23 07:05:58;;;;;;;8.97;6.97;;;23.10;99.90;;;;;;5094015;28;20298;-76
2023/08/23 07:08:28;;;;;;;13.97;6.83;;;23.30;99.90;;;;;;5094211;28;20229;-76
2023/08/23 07:10:56;;;;;;;7.60;6.40;;;23.30;99.90;;;;;;5079658;28;20207;-76
2023/08/23 07:13:24;;;;;;;9.03;6.80;;;23.30;99.90;;;;;;5073614;28;20215;-76
2023/08/23 07:15:52;;;;;;;8.77;6.73;;;23.40;99.90;;;;;;5074055;28;20276;-76
2023/08/23 07:18:21;;;;;;;10.03;6.33;;;23.70;99.90;;;;;;5073837;28;20257;-76
2023/08/23 07:20:49;;;;;;;9.30;5.73;;;24.20;99.90;;;;;;5073289;28;20514;-76
2023/08/23 07:23:17;;;;;;;7.73;5.67;;;24.80;99.90;;;;;;5073630;28;20265;-76
2023/08/23 07:25:47;;;;;;;10.67;5.33;;;25.50;99.90;;;;;;5073359;28;20207;-80
2023/08/23 07:28:15;;;;;;;9.67;4.97;;;26.40;99.90;;;;;;5072233;28;20253;-76
2023/08/23 07:30:46;;;;;;;6.03;4.60;;;27.50;99.90;;;;;;5073221;28;20289;-77
2023/08/23 07:33:14;;;;;;;10.02;4.53;;;28.30;99.90;;;;;;5073243;28;20222;-78
2023/08/23 07:35:42;;;;;;;7.07;4.30;;;29.00;99.90;;;;;;5072981;28;20567;-76
2023/08/23 07:38:10;;;;;;;7.00;4.63;;;30.00;99.90;;;;;;5073409;28;20626;-77
2023/08/23 07:40:39;;;;;;;6.93;4.75;;;30.50;99.90;;;;;;5073038;28;20204;-77
2023/08/23 07:43:08;;;;;;;7.30;4.60;;;30.90;99.90;;;;;;5076023;28;20280;-77
2023/08/23 07:45:36;;;;;;;8.93;4.10;;;31.40;99.90;;;;;;5072824;28;20245;-78
2023/08/23 07:48:06;;;;;;;7.22;4.35;;;31.60;99.90;;;;;;5073210;28;20208;-77
2023/08/23 07:50:36;;;;;;;8.63;4.50;;;31.80;99.90;;;;;;5073000;28;20310;-77
2023/08/23 07:53:05;;;;;;;6.15;4.53;;;32.50;99.90;;;;;;5072649;28;20207;-77
2023/08/23 07:55:33;;;;;;;5.53;4.35;;;33.20;99.60;;;;;;5072378;28;20651;-77
2023/08/23 07:58:01;;;;;;;8.95;4.50;;;33.30;96.10;;;;;;5072693;28;20211;-76
2023/08/23 08:00:31;;;;;;;6.40;3.80;;;33.30;97.50;;;;;;5072448;28;20670;-76
2023/08/23 08:02:59;;;;;;;7.47;4.13;;;33.60;95.30;;;;;;5072851;28;20207;-74
2023/08/23 08:05:28;;;;;;;5.82;3.75;;;34.40;94.50;;;;;;5072407;28;20294;-74
2023/08/23 08:07:56;;;;;;;5.53;3.75;;;34.50;92.60;;;;;;5072985;28;20257;-77
2023/08/23 08:10:36;;;;;;;6.68;3.88;;;35.00;91.80;;;;;;5072864;28;20216;-75
2023/08/23 08:13:06;;;;;;;7.65;3.83;;;34.60;89.90;;;;;;5072292;28;20208;-74
2023/08/23 08:15:35;;;;;;;7.03;4.30;;;34.30;89.50;;;;;;5072042;28;20214;-77
2023/08/23 08:18:04;;;;;;;6.47;3.95;;;34.00;91.70;;;;;;5072709;28;20578;-76
2023/08/23 08:20:32;;;;;;;9.13;4.07;;;34.00;91.30;;;;;;5071999;28;20231;-77
2023/08/23 08:23:00;;;;;;;6.90;4.30;;;33.70;93.60;;;;;;5072524;28;20207;-77
2023/08/23 08:25:28;;;;;;;7.00;4.43;;;33.60;93.10;;;;;;5072209;28;20218;-76
2023/08/23 08:27:56;;;;;;;7.32;3.97;;;33.50;91.00;;;;;;5072034;28;20212;-77
2023/08/23 08:30:25;;;;;;;7.75;4.07;;;34.00;91.70;;;;;;5071558;28;20762;-76
2023/08/23 08:32:54;;;;;;;7.82;4.00;;;34.10;92.40;;;;;;5072691;28;20276;-76
2023/08/23 08:35:23;;;;;;;6.82;4.00;;;34.10;92.20;;;;;;5071722;28;20207;-77
2023/08/23 08:37:51;;;;;;;5.18;4.13;;;34.30;90.30;;;;;;5071747;28;20212;-76
2023/08/23 08:40:21;;;;;;;8.82;4.60;;;34.10;91.80;;;;;;5071432;28;20284;-78
2023/08/23 08:42:50;;;;;;;8.68;4.90;;;34.60;84.80;;;;;;5091861;28;20211;-77
2023/08/23 08:45:20;;;;;;;6.88;5.00;;;36.10;77.10;;;;;;5092048;28;20260;-78
2023/08/23 08:47:49;;;;;;;8.73;4.63;;;35.40;82.80;;;;;;5090663;28;20218;-76
2023/08/23 08:50:20;;;;;;;6.68;4.50;;;35.40;83.70;;;;;;5091960;28;20223;-77
2023/08/23 08:52:53;;;;;;;8.93;5.32;;;35.80;85.40;;;;;;5092250;28;20263;-77
2023/08/23 08:55:22;;;;;;;8.05;4.93;;;36.00;78.50;;;;;;5085001;28;20265;-77
2023/08/23 08:57:53;;;;;;;5.97;4.00;;;35.80;85.60;;;;;;5071665;28;20215;-79
2023/08/23 09:00:25;;;;;;;5.85;3.80;;;36.40;83.40;;;;;;5071640;28;20227;-76
2023/08/23 09:02:54;;;;;;;7.35;3.58;;;37.10;80.30;;;;;;5071857;28;20218;-76
2023/08/23 09:05:25;;;;;;;5.57;3.40;;;36.20;82.10;;;;;;5071428;28;20207;-77
2023/08/23 09:07:54;;;;;;;3.53;3.22;;;35.90;79.60;;;;;;5071780;28;20621;-74
2023/08/23 09:10:22;;;;;;;6.88;3.65;;;35.70;77.60;;;;;;5071879;28;20626;-74
2023/08/23 09:12:50;;;;;;;4.97;3.88;;;36.70;75.70;;;;;;5071610;28;20580;-76
2023/08/23 09:15:23;;;;;;;5.97;3.72;;;36.90;69.30;;;;;;5071688;28;20666;-77
2023/08/23 09:17:54;;;;;;;4.95;3.70;;;36.40;78.40;;;;;;5071930;28;20601;-75
2023/08/23 09:20:25;;;;;;;6.32;4.20;;;36.00;76.90;;;;;;5071662;28;20199;-76
2023/08/23 09:22:54;;;;;;;4.80;3.67;;;35.30;77.00;;;;;;5071828;28;20207;-77
2023/08/23 09:25:24;;;;;;;5.20;3.70;;;35.20;83.00;;;;;;5071057;28;20207;-76
2023/08/23 09:27:54;;;;;;;8.73;3.60;;;35.10;80.50;;;;;;5071359;28;20673;-76
2023/08/23 09:30:23;;;;;;;5.03;3.00;;;35.60;72.80;;;;;;5071816;28;20223;-77
2023/08/23 09:32:51;;;;;;;5.30;3.50;;;35.90;70.90;;;;;;5071531;28;20215;-76
2023/08/23 09:35:20;;;;;;;6.28;3.67;;;35.20;77.30;;;;;;5070999;28;20203;-76
2023/08/23 09:37:50;;;;;;;4.90;3.30;;;36.00;71.20;;;;;;5075541;28;20217;-77
2023/08/23 09:40:21;;;;;;;4.28;3.25;;;34.70;71.60;;;;;;5091872;28;20622;-76
2023/08/23 09:42:50;;;;;;;6.25;3.67;;;35.20;80.60;;;;;;5091516;28;20217;-77
2023/08/23 09:45:20;;;;;;;5.13;3.40;;;35.50;77.60;;;;;;5091938;28;20260;-77
2023/08/23 09:47:52;;;;;;;5.85;4.00;;;34.10;77.70;;;;;;5074188;28;20211;-77
2023/08/23 09:50:22;;;;;;;6.45;3.67;;;34.80;71.80;;;;;;5071695;28;20281;-75
2023/08/23 09:52:54;;;;;;;5.35;3.40;;;35.00;71.80;;;;;;5075356;28;20234;-76
2023/08/23 09:55:24;;;;;;;5.15;3.67;;;35.40;69.40;;;;;;5074623;28;20215;-77
2023/08/23 09:57:53;;;;;;;4.63;3.30;;;34.40;73.20;;;;;;5075056;28;20725;-76
2023/08/23 10:00:23;;;;;;;5.38;3.53;;;34.50;71.90;;;;;;5075227;28;20234;-77
2023/08/23 10:02:53;;;;;;;4.63;3.35;;;34.50;75.10;;;;;;5074838;28;20204;-75
2023/08/23 10:05:21;;;;;;;4.20;3.15;;;35.30;77.00;;;;;;5074873;28;20207;-77
2023/08/23 10:07:57;;;;;;;7.43;3.55;;;35.60;70.10;;;;;;5075195;28;20202;-77
2023/08/23 10:10:26;;;;;;;4.43;3.20;;;35.80;65.50;;;;;;5074670;28;20581;-77
2023/08/23 10:12:58;;;;;;;6.20;3.60;;;36.30;71.70;;;;;;5075104;28;20222;-76
2023/08/23 10:15:30;;;;;;;4.90;3.35;;;36.40;65.70;;;;;;5074901;28;20333;-75
2023/08/23 10:18:02;;;;;;;6.13;3.38;;;36.70;67.70;;;;;;5074969;28;20211;-75
2023/08/23 10:20:34;;;;;;;4.97;3.42;;;36.80;68.20;;;;;;5074713;28;20552;-77
2023/08/23 10:23:12;;;;;;;4.55;3.30;;;36.90;70.60;;;;;;5074957;28;20291;-77
2023/08/23 10:25:42;;;;;;;5.72;3.60;;;36.50;64.60;;;;;;5074425;28;20637;-77
2023/08/23 10:28:13;;;;;;;8.30;3.65;;;37.10;68.50;;;;;;5092343;28;20206;-75
2023/08/23 10:30:43;;;;;;;5.75;4.05;;;37.50;65.90;;;;;;5094586;28;20211;-78
2023/08/23 10:33:13;;;;;;;8.93;3.90;;;37.70;59.70;;;;;;5094813;28;20214;-76
2023/08/23 10:35:43;;;;;;;4.97;3.63;;;36.70;67.40;;;;;;5094334;28;20220;-78
2023/08/23 10:38:14;;;;;;;5.93;3.58;;;37.20;59.40;;;;;;5094815;28;20548;-75
2023/08/23 10:40:44;;;;;;;5.55;3.58;;;36.90;63.60;;;;;;5094542;28;20256;-76
2023/08/23 10:43:14;;;;;;;5.80;3.55;;;36.20;62.80;;;;;;5094757;28;20562;-75
2023/08/23 10:45:57;;;;;;;6.28;3.60;;;36.80;65.40;;;;;;5091990;28;20206;-76
2023/08/23 10:48:25;;;;;;;7.95;3.83;;;36.50;65.70;;;;;;5074486;28;20199;-77
2023/08/23 10:50:54;;;;;;;4.45;3.65;;;36.60;61.30;;;;;;5074253;28;20230;-76
2023/08/23 10:53:24;;;;;;;5.38;3.70;;;35.80;63.50;;;;;;5074025;28;20726;-76
2023/08/23 10:55:56;;;;;;;4.85;4.10;;;35.70;67.30;;;;;;5080876;28;20290;-73
2023/08/23 10:58:25;;;;;;;5.47;4.00;;;35.70;62.80;;;;;;5094426;28;20207;-77
2023/08/23 11:00:54;;;;;;;6.13;4.93;;;35.00;68.40;;;;;;5094058;28;20249;-76
2023/08/23 11:03:24;;;;;;;7.47;4.50;;;33.80;70.90;;;;;;5093422;28;20206;-77
2023/08/23 11:05:52;;;;;;;6.75;4.45;;;33.40;74.20;;;;;;5073292;28;20203;-78
2023/08/23 11:08:21;;;;;;;8.32;5.47;;;33.60;76.40;;;;;;5073762;28;20753;-78
2023/08/23 11:10:51;;;;;;;7.03;4.50;;;33.90;71.50;;;;;;5073574;28;20259;-76
2023/08/23 11:13:20;;;;;;;6.10;4.10;;;34.50;71.90;;;;;;5073928;28;20215;-77
2023/08/23 11:15:48;;;;;;;6.93;4.35;;;34.40;73.30;;;;;;5073359;28;20213;-77
2023/08/23 11:18:16;;;;;;;7.30;4.88;;;34.50;73.50;;;;;;5073641;28;20215;-77
2023/08/23 11:20:45;;;;;;;7.28;5.15;;;33.70;72.60;;;;;;5073670;28;20745;-77
2023/08/23 11:23:13;;;;;;;6.22;4.10;;;32.90;71.30;;;;;;5073805;28;20252;-77
2023/08/23 11:25:41;;;;;;;5.57;4.10;;;33.10;77.90;;;;;;5073534;28;20215;-78
2023/08/23 11:28:15;;;;;;;6.82;4.43;;;33.60;74.70;;;;;;5073472;28;20285;-77
2023/08/23 11:30:45;;;;;;;5.35;3.60;;;33.70;76.60;;;;;;5073348;28;20233;-76
2023/08/23 11:33:13;;;;;;;6.13;4.10;;;33.40;80.10;;;;;;5073510;28;20204;-78
2023/08/23 11:35:42;;;;;;;5.60;4.05;;;33.00;76.50;;;;;;5072927;28;20581;-78
2023/08/23 11:38:10;;;;;;;8.15;4.05;;;33.20;74.80;;;;;;5088944;28;20594;-78
2023/08/23 11:40:38;;;;;;;5.03;3.60;;;32.90;71.00;;;;;;5095940;28;20260;-78
2023/08/23 11:43:07;;;;;;;7.35;3.88;;;33.10;74.60;;;;;;5076634;28;20204;-76
2023/08/23 11:45:52;;;;;;;8.23;3.83;;;33.00;76.70;;;;;;5074963;28;20690;-76
2023/08/23 11:48:23;;;;;;;5.68;3.58;;;33.10;74.10;;;;;;5073860;28;20592;-76
2023/08/23 11:50:51;;;;;;;7.07;3.80;;;33.30;77.70;;;;;;5072920;28;20218;-77
2023/08/23 11:53:20;;;;;;;6.90;3.83;;;32.60;78.10;;;;;;5073241;28;20238;-77
2023/08/23 11:55:51;;;;;;;4.68;3.97;;;32.50;75.90;;;;;;5073333;28;20649;-75
2023/08/23 11:58:19;;;;;;;4.97;3.63;;;32.60;77.20;;;;;;5073617;28;20623;-76
2023/08/23 12:00:48;;;;;;;8.05;3.70;;;32.60;79.50;;;;;;5072583;28;20787;-77
2023/08/23 12:03:18;;;;;;;4.95;3.50;;;32.60;78.80;;;;;;5073202;28;20215;-78
2023/08/23 12:05:46;;;;;;;5.75;3.80;;;32.30;79.60;;;;;;5078526;28;20281;-77
2023/08/23 12:08:15;;;;;;;5.90;3.40;;;32.60;84.50;;;;;;5092972;28;20656;-77
2023/08/23 12:10:43;;;;;;;8.15;3.90;;;32.60;82.60;;;;;;5093167;28;20275;-77
2023/08/23 12:13:12;;;;;;;7.28;3.70;;;32.20;82.20;;;;;;5080664;28;20265;-77
2023/08/23 12:15:40;;;;;;;9.13;4.45;;;32.30;83.10;;;;;;5072365;28;20277;-76
2023/08/23 12:18:08;;;;;;;5.75;3.83;;;32.20;81.80;;;;;;5072901;28;20207;-76
2023/08/23 12:20:38;;;;;;;4.32;3.53;;;32.30;81.30;;;;;;5072839;28;20231;-77
2023/08/23 12:23:06;;;;;;;6.35;4.15;;;32.30;81.90;;;;;;5087755;28;20211;-76
2023/08/23 12:25:34;;;;;;;6.15;3.50;;;32.00;83.30;;;;;;5092722;28;20231;-76
2023/08/23 12:28:02;;;;;;;6.93;3.63;;;31.90;80.70;;;;;;5092593;28;20696;-77
2023/08/23 12:30:31;;;;;;;4.93;3.50;;;31.60;80.80;;;;;;5081326;28;20632;-78
2023/08/23 12:32:59;;;;;;;6.97;3.50;;;31.90;78.50;;;;;;5072190;28;20581;-76
2023/08/23 12:35:27;;;;;;;7.20;3.40;;;31.80;79.30;;;;;;5077143;28;20289;-76
2023/08/23 12:37:56;;;;;;;4.60;3.60;;;32.30;82.80;;;;;;5085603;28;20265;-76
2023/08/23 12:40:25;;;;;;;5.72;3.70;;;32.30;83.90;;;;;;5072220;28;20657;-77
2023/08/23 12:42:53;;;;;;;5.05;3.50;;;32.20;83.30;;;;;;5072356;28;20210;-77
2023/08/23 12:45:21;;;;;;;8.50;3.63;;;32.20;81.70;;;;;;5072087;28;20253;-77
2023/08/23 12:47:49;;;;;;;5.22;3.70;;;32.10;79.60;;;;;;5071876;28;20223;-77